Terminal Aerodrome Forecast
Issued by NWS Cleveland, OH

Home | Current Version | Previous Version | Graphics & Text | Print | Product List | Glossary On
Versions: 1 2 3 4 5 6 7 8 9 10 11 12 13 14 15 16 17 18 19 20 21 22 23 24 25 26 27
000
FTUS41 KCLE 241100
TAFTOL
TAF
KTOL 241137Z 2412/2512 00000KT 4SM BR SCT080 BKN250
      TEMPO 2412/2414 2SM BR
     FM241400 24004KT P6SM SCT035 BKN080
     FM241600 24006KT P6SM BKN040
     FM242200 22004KT P6SM SCT050
     FM250800 22006KT 4SM BR SCT003 OVC250=

USA.gov is the U.S. government's official web portal to all federal, state and local government web resources and services.